createdAt,value
2018-07-01T00:00:48.049Z,0
2018-07-01T00:01:28.502Z,0
2018-07-01T00:02:09.089Z,0
2018-07-01T00:02:49.508Z,0
2018-07-01T00:03:30.032Z,0
2018-07-01T00:04:10.446Z,0
2018-07-01T00:04:51.092Z,0
2018-07-01T00:05:31.765Z,0
2018-07-01T00:06:12.131Z,0
2018-07-01T00:06:52.778Z,0
2018-07-01T00:07:33.158Z,0
2018-07-01T00:08:14.101Z,0
2018-07-01T00:08:54.497Z,0
2018-07-01T00:09:35.062Z,0
2018-07-01T00:10:15.421Z,0
2018-07-01T00:10:55.867Z,0
2018-07-01T00:11:36.439Z,0
2018-07-01T00:12:16.905Z,0
2018-07-01T00:12:57.263Z,0
2018-07-01T00:13:37.624Z,0
2018-07-01T00:14:18.722Z,0
2018-07-01T00:14:59.302Z,0
2018-07-01T00:15:39.672Z,0
2018-07-01T00:16:20.421Z,0
2018-07-01T00:18:34.751Z,0
2018-07-01T00:19:15.019Z,0
2018-07-01T00:26:08.991Z,0
2018-07-01T00:26:49.301Z,0
2018-07-01T00:27:30.157Z,0
2018-07-01T00:28:10.514Z,0
2018-07-01T00:28:50.853Z,0
2018-07-01T00:31:05.248Z,0
2018-07-01T00:31:45.950Z,0
2018-07-01T00:32:26.288Z,0
2018-07-01T00:33:06.680Z,0
2018-07-01T00:33:47.416Z,0
2018-07-01T00:36:24.747Z,0
2018-07-01T00:37:04.687Z,0
2018-07-01T00:37:45.251Z,0
2018-07-01T00:38:25.643Z,0
2018-07-01T00:39:06.661Z,0
2018-07-01T00:39:46.884Z,0
2018-07-01T00:40:27.312Z,0
2018-07-01T00:41:07.829Z,0
2018-07-01T00:41:48.368Z,0
2018-07-01T00:42:28.791Z,0
2018-07-01T00:43:09.256Z,0
2018-07-01T00:43:49.687Z,0
2018-07-01T00:44:30.070Z,0
2018-07-01T00:45:10.726Z,0
2018-07-01T00:45:50.948Z,0
2018-07-01T00:46:31.458Z,0
2018-07-01T00:47:11.815Z,0
2018-07-01T00:47:52.507Z,0
2018-07-01T00:48:33.082Z,0
2018-07-01T00:49:13.481Z,0
2018-07-01T00:49:53.950Z,0
2018-07-01T00:50:34.542Z,0
2018-07-01T00:51:14.975Z,0
2018-07-01T00:51:55.395Z,0
2018-07-01T00:52:35.803Z,0
2018-07-01T00:53:16.519Z,0
2018-07-01T00:53:56.862Z,0
2018-07-01T00:54:37.365Z,0
2018-07-01T00:55:17.739Z,0
2018-07-01T00:55:58.437Z,0
2018-07-01T00:56:39.230Z,0
2018-07-01T00:57:19.490Z,0
2018-07-01T00:57:59.952Z,0
2018-07-01T00:58:40.268Z,0
2018-07-01T00:59:20.961Z,0
2018-07-01T01:00:01.315Z,0
2018-07-01T01:00:41.840Z,0
2018-07-01T01:01:22.390Z,0
2018-07-01T01:02:02.681Z,0
2018-07-01T01:02:43.184Z,0
2018-07-01T01:03:24.356Z,0
2018-07-01T01:04:04.842Z,0
2018-07-01T01:04:45.189Z,0
2018-07-01T01:05:25.660Z,0
2018-07-01T01:07:59.563Z,0
2018-07-01T01:08:39.986Z,0
2018-07-01T01:09:20.330Z,0
2018-07-01T01:10:01.189Z,0
2018-07-01T01:10:41.602Z,0
2018-07-01T01:11:22.033Z,0
2018-07-01T01:12:02.454Z,0
2018-07-01T01:12:42.771Z,0
2018-07-01T01:13:23.194Z,0
2018-07-01T01:14:03.691Z,0
2018-07-01T01:14:44.083Z,0
2018-07-01T01:15:24.932Z,0
2018-07-01T01:16:05.599Z,0
2018-07-01T01:16:46.227Z,0
2018-07-01T01:17:26.986Z,0
2018-07-01T01:18:07.621Z,0
2018-07-01T01:18:47.991Z,0
2018-07-01T01:19:28.599Z,0
2018-07-01T01:20:09.104Z,0
2018-07-01T01:20:49.736Z,0
2018-07-01T01:21:30.257Z,0
2018-07-01T01:22:10.599Z,0
2018-07-01T01:22:51.343Z,0
2018-07-01T01:23:31.765Z,0
2018-07-01T01:24:12.148Z,0
2018-07-01T01:24:52.588Z,0
2018-07-01T01:25:33.872Z,0
2018-07-01T01:26:14.454Z,0
2018-07-01T01:26:54.934Z,0
2018-07-01T01:27:35.397Z,0
2018-07-01T01:28:15.786Z,0
2018-07-01T01:28:56.366Z,0
2018-07-01T01:29:36.739Z,0
2018-07-01T01:30:17.150Z,0
2018-07-01T01:30:57.518Z,0
2018-07-01T01:31:37.958Z,0
2018-07-01T01:32:18.472Z,0
2018-07-01T01:32:59.064Z,0
2018-07-01T01:33:39.458Z,0
2018-07-01T01:34:20.213Z,0
2018-07-01T01:35:00.707Z,0
2018-07-01T01:35:41.368Z,0
2018-07-01T01:36:21.583Z,0
2018-07-01T01:37:01.971Z,0
2018-07-01T01:37:42.552Z,0
2018-07-01T01:38:22.946Z,0
2018-07-01T01:39:03.426Z,0
2018-07-01T01:39:43.837Z,0
2018-07-01T01:40:24.189Z,0
2018-07-01T01:41:04.786Z,0
2018-07-01T01:41:45.299Z,0
2018-07-01T01:42:25.807Z,0
2018-07-01T01:43:06.262Z,0
2018-07-01T01:43:46.574Z,0
2018-07-01T01:44:26.913Z,0
2018-07-01T01:47:05.971Z,0
2018-07-01T01:47:49.080Z,0
2018-07-01T01:48:29.535Z,0
2018-07-01T01:49:09.951Z,0
2018-07-01T01:51:24.950Z,0
2018-07-01T01:52:07.708Z,0
2018-07-01T01:52:48.022Z,0
2018-07-01T01:53:28.432Z,0
2018-07-01T01:54:08.878Z,0
2018-07-01T01:54:49.319Z,0
2018-07-01T01:55:29.745Z,0
2018-07-01T01:56:10.326Z,0
2018-07-01T01:56:50.693Z,0
2018-07-01T01:57:31.299Z,0
2018-07-01T01:58:11.469Z,0
2018-07-01T01:58:51.996Z,0
2018-07-01T01:59:32.759Z,0
2018-07-01T02:00:13.385Z,0
2018-07-01T02:00:53.703Z,0
2018-07-01T02:03:32.548Z,0
2018-07-01T02:04:12.726Z,0
2018-07-01T02:04:53.886Z,0
2018-07-01T02:05:34.402Z,0
2018-07-01T02:06:15.086Z,0
2018-07-01T02:06:55.419Z,0
2018-07-01T02:07:35.871Z,0
2018-07-01T02:08:16.267Z,0
2018-07-01T02:08:56.814Z,0
2018-07-01T02:09:37.248Z,0
2018-07-01T02:10:17.810Z,0
2018-07-01T02:10:58.146Z,0
2018-07-01T02:11:38.664Z,0
2018-07-01T02:12:20.274Z,0
2018-07-01T02:13:00.209Z,0
2018-07-01T02:13:40.628Z,0
2018-07-01T02:14:20.987Z,0
2018-07-01T02:15:02.595Z,0
2018-07-01T02:15:43.133Z,0
2018-07-01T02:16:23.563Z,0
2018-07-01T02:17:04.001Z,0
2018-07-01T02:17:44.486Z,0
2018-07-01T02:18:25.932Z,0
2018-07-01T02:19:06.272Z,0
2018-07-01T02:19:46.890Z,0
2018-07-01T02:20:27.976Z,0
2018-07-01T02:21:08.319Z,0
2018-07-01T02:21:48.856Z,0
2018-07-01T02:22:29.262Z,0
2018-07-01T02:25:13.647Z,0
2018-07-01T02:25:54.937Z,0
2018-07-01T02:26:35.951Z,0
2018-07-01T02:27:16.309Z,0
2018-07-01T02:27:56.689Z,0
2018-07-01T02:28:37.126Z,0
2018-07-01T02:29:17.769Z,0
2018-07-01T02:29:58.736Z,0
2018-07-01T02:30:38.617Z,0
2018-07-01T02:31:20.178Z,0
2018-07-01T02:32:00.660Z,0
2018-07-01T02:32:41.084Z,0
2018-07-01T02:33:21.628Z,0
2018-07-01T02:34:02.011Z,0
2018-07-01T02:34:42.494Z,0
2018-07-01T02:35:22.905Z,0
2018-07-01T02:37:54.690Z,0
2018-07-01T02:38:35.028Z,0
2018-07-01T02:39:17.548Z,0
2018-07-01T02:39:57.883Z,0
2018-07-01T02:40:39.212Z,0
2018-07-01T02:41:19.561Z,0
2018-07-01T02:42:00.509Z,0
2018-07-01T02:42:40.907Z,0
2018-07-01T02:43:21.724Z,0
2018-07-01T02:44:02.089Z,0
2018-07-01T02:44:42.489Z,0
2018-07-01T02:45:22.941Z,0
2018-07-01T02:46:03.758Z,0
2018-07-01T02:46:44.120Z,0
2018-07-01T02:47:24.632Z,0
2018-07-01T02:48:05.101Z,0
2018-07-01T02:48:45.811Z,0
2018-07-01T02:49:26.351Z,0
2018-07-01T02:50:07.923Z,0
2018-07-01T02:50:47.809Z,0
2018-07-01T02:51:28.716Z,0
2018-07-01T02:52:08.907Z,0
2018-07-01T02:52:49.274Z,0
2018-07-01T02:53:29.740Z,0
2018-07-01T02:54:10.187Z,0
2018-07-01T02:54:50.694Z,0
2018-07-01T02:55:31.110Z,0
2018-07-01T02:56:11.596Z,0
2018-07-01T02:56:52.410Z,0
2018-07-01T02:57:33.647Z,0
2018-07-01T02:58:13.905Z,0
2018-07-01T02:58:54.461Z,0
2018-07-01T02:59:35.267Z,0
2018-07-01T03:00:16.197Z,0
2018-07-01T03:00:57.233Z,0
2018-07-01T03:01:37.477Z,0
2018-07-01T03:02:18.428Z,0
2018-07-01T03:02:58.857Z,0
2018-07-01T03:03:39.392Z,0
2018-07-01T03:04:20.559Z,0
2018-07-01T03:05:00.939Z,0
2018-07-01T03:05:41.337Z,0
2018-07-01T03:06:21.782Z,0
2018-07-01T03:07:02.219Z,0
2018-07-01T03:07:42.659Z,0
2018-07-01T03:08:23.320Z,0
2018-07-01T03:10:54.380Z,0
2018-07-01T03:11:34.447Z,0
2018-07-01T03:12:14.988Z,0
2018-07-01T03:12:55.418Z,0
2018-07-01T03:15:14.270Z,0
2018-07-01T03:15:54.692Z,0
2018-07-01T03:16:35.182Z,0
2018-07-01T03:17:15.627Z,0
2018-07-01T03:17:56.049Z,0
2018-07-01T03:18:36.516Z,0
2018-07-01T03:19:16.989Z,0
2018-07-01T03:19:57.485Z,0
2018-07-01T03:20:37.959Z,0
2018-07-01T03:21:18.350Z,0
2018-07-01T03:21:59.115Z,0
2018-07-01T03:22:39.867Z,0
2018-07-01T03:23:21.504Z,0
2018-07-01T03:24:01.880Z,0
2018-07-01T03:24:42.298Z,0
2018-07-01T03:25:22.747Z,0
2018-07-01T03:26:03.116Z,0
2018-07-01T03:26:43.669Z,0
2018-07-01T03:27:23.960Z,0
2018-07-01T03:28:05.513Z,0
2018-07-01T03:28:45.856Z,0
2018-07-01T03:29:26.336Z,0
2018-07-01T03:30:06.630Z,0
2018-07-01T03:30:47.299Z,0
2018-07-01T03:31:27.962Z,0
2018-07-01T03:32:08.278Z,0
2018-07-01T03:32:48.670Z,0
2018-07-01T03:33:29.161Z,0
2018-07-01T03:34:09.562Z,5
2018-07-01T03:34:49.956Z,5
2018-07-01T03:35:30.401Z,5
2018-07-01T03:36:10.747Z,5
2018-07-01T03:36:51.298Z,5
2018-07-01T03:37:31.729Z,5
2018-07-01T03:38:12.368Z,5
2018-07-01T03:38:52.620Z,5
2018-07-01T03:39:33.286Z,5
2018-07-01T03:40:14.008Z,5
2018-07-01T03:40:54.399Z,5
2018-07-01T03:41:34.938Z,5
2018-07-01T03:42:17.741Z,5
2018-07-01T03:42:57.887Z,5
2018-07-01T03:43:38.391Z,5
2018-07-01T03:44:18.815Z,5
2018-07-01T03:44:59.493Z,5
2018-07-01T03:45:39.829Z,5
2018-07-01T03:46:20.346Z,5
2018-07-01T03:47:01.294Z,5
2018-07-01T03:47:41.619Z,5
2018-07-01T03:48:22.222Z,5
2018-07-01T03:49:02.476Z,5
2018-07-01T03:49:43.029Z,5
2018-07-01T03:50:23.727Z,10
2018-07-01T03:51:03.905Z,10
2018-07-01T03:51:44.545Z,10
2018-07-01T03:52:24.915Z,10
2018-07-01T03:53:05.306Z,10
2018-07-01T03:53:46.183Z,10
2018-07-01T03:54:26.685Z,10
2018-07-01T03:55:07.313Z,10
2018-07-01T03:55:48.841Z,10
2018-07-01T03:56:28.906Z,10
2018-07-01T03:57:09.335Z,10
2018-07-01T03:57:49.787Z,10
2018-07-01T03:58:30.616Z,10
2018-07-01T03:59:11.131Z,10
2018-07-01T03:59:51.617Z,10
2018-07-01T04:00:31.974Z,10
2018-07-01T04:01:12.590Z,10
2018-07-01T04:01:52.746Z,10
2018-07-01T04:02:33.512Z,15
2018-07-01T04:42:30.748Z,120
2018-07-01T04:43:10.750Z,120
2018-07-01T04:43:51.144Z,125
2018-07-01T04:44:31.597Z,125
2018-07-01T04:45:12.104Z,125
2018-07-01T04:47:27.754Z,130
2018-07-01T04:48:08.102Z,130
2018-07-01T04:48:48.549Z,130
2018-07-01T04:49:29.107Z,130
2018-07-01T04:50:09.452Z,135
2018-07-01T04:50:49.876Z,135
2018-07-01T04:51:30.511Z,140
2018-07-01T04:52:10.952Z,140
2018-07-01T04:52:51.376Z,140
2018-07-01T04:53:31.808Z,140
2018-07-01T04:54:12.384Z,140
2018-07-01T04:54:52.797Z,145
2018-07-01T04:55:33.428Z,145
2018-07-01T04:56:13.733Z,150
2018-07-01T04:56:54.096Z,150
2018-07-01T04:57:34.461Z,155
2018-07-01T04:58:14.864Z,155
2018-07-01T04:58:55.416Z,160
2018-07-01T04:59:35.850Z,160
2018-07-01T05:00:16.333Z,160
2018-07-01T05:00:56.793Z,165
2018-07-01T05:01:37.172Z,165
2018-07-01T05:02:17.722Z,170
2018-07-01T05:02:58.159Z,170
2018-07-01T05:03:38.791Z,175
2018-07-01T05:04:19.243Z,180
2018-07-01T05:04:59.714Z,180
2018-07-01T05:05:40.243Z,185
2018-07-01T05:06:22.318Z,190
2018-07-01T05:07:02.891Z,195
2018-07-01T05:07:43.229Z,195
2018-07-01T05:08:23.772Z,200
2018-07-01T05:09:04.089Z,200
2018-07-01T05:09:44.513Z,200
2018-07-01T05:10:24.950Z,205
2018-07-01T05:11:05.399Z,205
2018-07-01T05:11:45.781Z,210
2018-07-01T05:12:26.404Z,215
2018-07-01T05:13:06.945Z,220
2018-07-01T05:13:47.254Z,225
2018-07-01T05:14:27.886Z,230
2018-07-01T05:15:08.454Z,235
2018-07-01T05:15:49.353Z,240
2018-07-01T05:16:29.764Z,240
2018-07-01T05:17:10.244Z,245
2018-07-01T05:17:50.648Z,255
2018-07-01T05:18:31.020Z,250
2018-07-01T05:19:11.678Z,250
2018-07-01T05:19:51.974Z,255
2018-07-01T05:20:32.501Z,260
2018-07-01T05:21:13.062Z,260
2018-07-01T05:21:53.481Z,265
2018-07-01T05:22:33.886Z,275
2018-07-01T05:23:14.238Z,280
2018-07-01T05:23:54.652Z,290
2018-07-01T05:26:24.289Z,285
2018-07-01T05:27:04.716Z,275
2018-07-01T05:27:45.159Z,275
2018-07-01T05:28:25.517Z,275
2018-07-01T05:29:05.998Z,275
2018-07-01T05:29:46.385Z,280
2018-07-01T05:30:26.983Z,280
2018-07-01T05:31:07.689Z,280
2018-07-01T05:31:48.204Z,285
2018-07-01T05:32:28.547Z,280
2018-07-01T05:33:09.497Z,285
2018-07-01T05:33:49.891Z,285
2018-07-01T05:34:30.288Z,285
2018-07-01T05:35:10.839Z,285
2018-07-01T05:35:51.495Z,285
2018-07-01T05:36:33.130Z,290
2018-07-01T05:37:13.058Z,295
2018-07-01T05:37:53.480Z,300
2018-07-01T05:38:33.962Z,305
2018-07-01T05:39:14.577Z,300
2018-07-01T05:39:55.365Z,300
2018-07-01T05:40:35.297Z,300
2018-07-01T05:41:15.709Z,305
2018-07-01T05:41:56.247Z,305
2018-07-01T05:42:36.640Z,310
2018-07-01T05:43:17.136Z,310
2018-07-01T05:43:57.595Z,310
2018-07-01T05:44:37.951Z,315
2018-07-01T05:45:18.447Z,315
2018-07-01T05:45:59.083Z,315
2018-07-01T05:46:39.509Z,325
2018-07-01T05:47:19.875Z,320
2018-07-01T05:48:00.291Z,325
2018-07-01T05:48:40.756Z,335
2018-07-01T05:49:21.191Z,335
2018-07-01T05:50:01.515Z,335
2018-07-01T05:50:42.029Z,340
2018-07-01T05:51:22.332Z,340
2018-07-01T05:52:03.066Z,345
2018-07-01T05:52:46.153Z,345
2018-07-01T05:53:26.592Z,345
2018-07-01T05:54:07.003Z,350
2018-07-01T05:54:47.439Z,350
2018-07-01T05:55:28.030Z,350
2018-07-01T05:56:08.438Z,355
2018-07-01T05:56:49.076Z,365
2018-07-01T05:57:29.504Z,380
2018-07-01T05:58:09.899Z,390
2018-07-01T06:00:29.775Z,370
2018-07-01T06:01:09.604Z,375
2018-07-01T06:01:50.158Z,375
2018-07-01T06:02:30.464Z,375
2018-07-01T06:03:10.957Z,385
2018-07-01T06:03:51.397Z,385
2018-07-01T06:04:32.105Z,390
2018-07-01T06:05:12.519Z,395
2018-07-01T06:05:52.985Z,405
2018-07-01T06:06:33.416Z,405
2018-07-01T06:07:13.825Z,410
2018-07-01T06:07:54.337Z,415
2018-07-01T06:08:34.823Z,415
2018-07-01T06:09:15.137Z,425
2018-07-01T06:09:55.663Z,430
2018-07-01T06:10:36.073Z,440
2018-07-01T06:12:55.844Z,465
2018-07-01T06:13:36.279Z,480
2018-07-01T06:14:16.677Z,490
2018-07-01T06:14:57.231Z,500
2018-07-01T06:15:37.573Z,510
2018-07-01T06:16:18.007Z,520
2018-07-01T06:16:58.398Z,530
2018-07-01T06:17:38.961Z,545
2018-07-01T06:18:19.376Z,570
2018-07-01T06:19:00.010Z,590
2018-07-01T06:19:40.352Z,610
2018-07-01T06:21:59.689Z,680
2018-07-01T06:22:40.910Z,920
2018-07-01T06:24:59.186Z,2060
2018-07-01T06:25:39.401Z,1800
2018-07-01T06:26:19.840Z,1460
2018-07-01T06:27:00.326Z,1310
2018-07-01T06:27:40.739Z,1300
2018-07-01T06:28:21.295Z,1320
2018-07-01T06:29:01.604Z,1335
2018-07-01T06:29:42.257Z,1335
2018-07-01T06:30:22.783Z,1370
2018-07-01T06:31:03.369Z,1415
2018-07-01T06:31:43.824Z,1450
2018-07-01T06:32:24.188Z,1435
2018-07-01T06:33:04.640Z,1435
2018-07-01T06:33:45.239Z,1475
2018-07-01T06:34:25.649Z,1510
2018-07-01T06:35:06.108Z,1535
2018-07-01T06:35:46.487Z,1540
2018-07-01T06:36:26.950Z,1550
2018-07-01T06:37:07.340Z,1540
2018-07-01T06:37:47.849Z,1515
2018-07-01T06:38:28.211Z,1510
2018-07-01T06:39:08.640Z,1485
2018-07-01T06:39:49.361Z,1490
2018-07-01T06:40:30.251Z,1500
2018-07-01T06:41:10.691Z,1510
2018-07-01T06:41:51.189Z,1545
2018-07-01T06:42:31.648Z,1620
2018-07-01T06:43:12.095Z,1680
2018-07-01T06:43:52.508Z,1705
2018-07-01T06:44:32.891Z,1750
2018-07-01T06:45:13.278Z,1785
2018-07-01T06:45:53.673Z,1790
2018-07-01T06:46:34.131Z,1745
2018-07-01T06:47:14.557Z,1720
2018-07-01T06:47:55.077Z,1690
2018-07-01T06:48:35.596Z,1700
2018-07-01T06:49:16.004Z,1720
2018-07-01T06:49:56.468Z,1725
2018-07-01T06:50:36.912Z,1735
2018-07-01T06:51:17.329Z,1775
2018-07-01T06:51:57.845Z,1690
2018-07-01T06:52:38.407Z,1375
2018-07-01T06:53:18.814Z,975
2018-07-01T06:53:59.193Z,715
2018-07-01T06:54:39.684Z,660
2018-07-01T06:55:20.148Z,635
2018-07-01T06:56:00.826Z,620
2018-07-01T06:56:41.085Z,620
2018-07-01T06:57:21.660Z,620
2018-07-01T06:58:02.083Z,615
2018-07-01T06:58:42.474Z,610
2018-07-01T06:59:23.078Z,605
2018-07-01T07:00:03.667Z,595
2018-07-01T07:00:44.040Z,600
2018-07-01T07:01:24.424Z,615
2018-07-01T07:02:04.884Z,630
2018-07-01T07:02:45.346Z,635
2018-07-01T07:03:25.845Z,635
2018-07-01T07:05:40.488Z,690
2018-07-01T07:06:20.848Z,730
2018-07-01T07:07:01.376Z,710
2018-07-01T07:07:42.021Z,725
2018-07-01T07:08:22.655Z,745
2018-07-01T07:09:02.785Z,765
2018-07-01T07:09:43.214Z,760
2018-07-01T07:10:23.702Z,750
2018-07-01T07:11:04.083Z,750
2018-07-01T07:11:44.546Z,765
2018-07-01T07:12:25.099Z,765
2018-07-01T07:13:05.681Z,770
2018-07-01T07:13:46.025Z,740
2018-07-01T07:14:26.545Z,705
2018-07-01T07:15:06.857Z,660
2018-07-01T07:15:47.451Z,655
2018-07-01T07:16:27.771Z,655
2018-07-01T07:17:08.249Z,650
2018-07-01T07:17:48.601Z,630
2018-07-01T07:18:29.105Z,645
2018-07-01T07:19:09.563Z,660
2018-07-01T07:19:50.082Z,675
2018-07-01T07:20:30.471Z,690
2018-07-01T07:21:10.976Z,695
2018-07-01T07:21:51.400Z,680
2018-07-01T07:22:31.935Z,645
2018-07-01T07:23:12.492Z,620
2018-07-01T07:23:52.740Z,615
2018-07-01T07:24:33.308Z,615
2018-07-01T07:25:13.713Z,610
2018-07-01T07:25:54.041Z,595
2018-07-01T07:26:34.499Z,590
2018-07-01T07:27:15.230Z,590
2018-07-01T07:27:55.497Z,590
2018-07-01T07:28:35.943Z,585
2018-07-01T07:29:16.411Z,560
2018-07-01T07:29:57.152Z,530
2018-07-01T07:30:37.403Z,525
2018-07-01T07:31:17.916Z,510
2018-07-01T07:31:58.518Z,470
2018-07-01T07:32:38.952Z,405
2018-07-01T07:33:19.356Z,350
2018-07-01T07:33:59.847Z,305
2018-07-01T07:34:40.343Z,285
2018-07-01T07:35:21.033Z,265
2018-07-01T07:36:01.520Z,250
2018-07-01T07:36:41.745Z,240
2018-07-01T07:37:22.156Z,230
2018-07-01T07:38:02.535Z,215
2018-07-01T07:38:42.994Z,210
2018-07-01T07:39:23.423Z,200
2018-07-01T07:40:03.893Z,190
2018-07-01T07:40:44.298Z,190
2018-07-01T07:41:24.706Z,185
2018-07-01T07:42:05.172Z,175
2018-07-01T07:42:45.740Z,175
2018-07-01T07:43:26.300Z,170
2018-07-01T07:44:06.560Z,165
2018-07-01T07:44:47.095Z,155
2018-07-01T07:45:27.515Z,155
2018-07-01T07:46:07.925Z,150
2018-07-01T07:46:48.404Z,145
2018-07-01T07:47:29.013Z,145
2018-07-01T07:48:09.390Z,140
2018-07-01T07:48:49.959Z,135
2018-07-01T07:49:30.461Z,130
2018-07-01T07:50:10.777Z,130
2018-07-01T07:50:51.201Z,125
2018-07-01T07:51:31.627Z,125
2018-07-01T07:52:12.189Z,120
2018-07-01T07:52:52.539Z,120
2018-07-01T07:53:32.946Z,115
2018-07-01T07:54:13.577Z,115
2018-07-01T07:54:53.959Z,115
2018-07-01T07:55:34.384Z,110
2018-07-01T07:56:14.956Z,110
2018-07-01T07:56:55.208Z,110
2018-07-01T07:57:35.705Z,105
2018-07-01T07:58:16.132Z,105
2018-07-01T07:58:56.556Z,105
2018-07-01T07:59:36.961Z,105
2018-07-01T08:00:17.679Z,100
2018-07-01T08:02:46.524Z,100
2018-07-01T08:03:27.019Z,95
2018-07-01T08:04:07.513Z,105
2018-07-01T08:04:47.899Z,100
2018-07-01T08:05:28.337Z,100
2018-07-01T08:06:08.859Z,100
2018-07-01T08:06:49.283Z,100
2018-07-01T08:07:29.797Z,100
2018-07-01T08:08:10.413Z,95
2018-07-01T08:08:50.839Z,95
2018-07-01T08:09:31.458Z,95
2018-07-01T08:10:11.883Z,95
2018-07-01T08:10:52.364Z,95
2018-07-01T08:11:32.892Z,95
2018-07-01T08:12:13.352Z,95
2018-07-01T08:12:53.945Z,95
2018-07-01T08:13:34.251Z,90
2018-07-01T08:14:14.664Z,90
2018-07-01T08:14:55.237Z,90
2018-07-01T08:15:35.612Z,90
2018-07-01T08:16:16.066Z,90
2018-07-01T08:16:56.664Z,90
2018-07-01T08:17:37.277Z,90
2018-07-01T08:18:17.590Z,90
2018-07-01T08:18:58.051Z,90
2018-07-01T08:19:38.430Z,85
2018-07-01T08:22:12.401Z,85
2018-07-01T08:22:53.130Z,85
2018-07-01T08:23:33.451Z,85
2018-07-01T08:24:14.262Z,85
2018-07-01T08:24:54.373Z,85
2018-07-01T08:25:34.921Z,85
2018-07-01T08:26:15.323Z,85
2018-07-01T08:26:55.914Z,85
2018-07-01T08:27:36.448Z,85
2018-07-01T08:28:16.810Z,75
2018-07-01T08:28:57.266Z,75
2018-07-01T08:29:37.673Z,75
2018-07-01T08:30:18.138Z,75
2018-07-01T08:30:58.724Z,75
2018-07-01T08:31:39.170Z,75
2018-07-01T08:32:19.536Z,75
2018-07-01T08:33:00.193Z,75
2018-07-01T08:33:40.935Z,75
2018-07-01T08:34:21.365Z,75
2018-07-01T08:35:01.770Z,75
2018-07-01T08:35:42.255Z,75
2018-07-01T08:36:22.662Z,75
2018-07-01T08:37:03.152Z,75
2018-07-01T08:37:43.843Z,75
2018-07-01T08:38:24.190Z,75
2018-07-01T08:39:04.561Z,75
2018-07-01T08:39:45.014Z,75
2018-07-01T08:40:25.572Z,70
2018-07-01T08:41:06.008Z,70
2018-07-01T08:41:46.427Z,70
2018-07-01T08:42:26.816Z,70
2018-07-01T08:43:07.463Z,70
2018-07-01T08:43:47.864Z,70
2018-07-01T08:44:28.294Z,70
2018-07-01T08:45:08.714Z,70
2018-07-01T08:45:49.165Z,70
2018-07-01T08:46:29.558Z,70
2018-07-01T08:47:09.947Z,70
2018-07-01T08:47:50.378Z,75
2018-07-01T08:48:31.185Z,75
2018-07-01T08:49:11.504Z,75
2018-07-01T08:49:51.988Z,75
2018-07-01T08:50:32.714Z,75
2018-07-01T08:51:12.997Z,75
2018-07-01T08:51:53.450Z,75
2018-07-01T08:52:33.979Z,75
2018-07-01T08:53:14.377Z,75
2018-07-01T08:53:54.776Z,75
2018-07-01T08:54:35.264Z,70
2018-07-01T08:55:15.703Z,70
2018-07-01T08:55:56.061Z,70
2018-07-01T08:56:36.549Z,70
2018-07-01T08:57:16.899Z,70
2018-07-01T08:57:57.375Z,70
2018-07-01T08:58:38.014Z,70
2018-07-01T08:59:18.402Z,75
2018-07-01T08:59:58.989Z,75
2018-07-01T09:00:39.605Z,75
2018-07-01T09:01:19.874Z,75
2018-07-01T09:02:00.368Z,70
2018-07-01T09:02:40.826Z,70
2018-07-01T09:03:21.424Z,65
2018-07-01T09:04:01.867Z,70
2018-07-01T09:06:31.396Z,65
2018-07-01T09:07:11.883Z,65
2018-07-01T09:07:52.751Z,75
2018-07-01T09:08:33.254Z,75
2018-07-01T09:09:13.763Z,75
2018-07-01T09:09:54.074Z,75
2018-07-01T09:10:34.500Z,75
2018-07-01T09:11:14.996Z,75
2018-07-01T09:11:55.459Z,75
2018-07-01T09:12:35.928Z,75
2018-07-01T09:13:16.558Z,75
2018-07-01T09:13:56.899Z,75
2018-07-01T09:14:37.361Z,75
2018-07-01T09:15:18.612Z,75
2018-07-01T09:15:59.099Z,70
2018-07-01T09:16:39.741Z,70
2018-07-01T09:17:20.238Z,70
2018-07-01T09:18:00.520Z,70
2018-07-01T09:18:41.052Z,70
2018-07-01T09:19:21.572Z,70
2018-07-01T09:20:02.113Z,65
2018-07-01T09:20:42.578Z,65
2018-07-01T09:21:22.988Z,65
2018-07-01T09:22:03.498Z,70
2018-07-01T09:22:43.987Z,70
2018-07-01T09:25:25.679Z,70
2018-07-01T09:26:06.149Z,70
2018-07-01T09:26:46.767Z,70
2018-07-01T09:27:27.209Z,70
2018-07-01T09:28:07.652Z,70
2018-07-01T09:28:48.215Z,70
2018-07-01T09:29:28.811Z,70
2018-07-01T09:30:09.150Z,70
2018-07-01T09:30:49.633Z,70
2018-07-01T09:31:29.965Z,70
2018-07-01T09:32:10.360Z,70
2018-07-01T09:32:50.892Z,70
2018-07-01T09:33:31.449Z,70
2018-07-01T09:34:11.856Z,70
2018-07-01T09:34:52.347Z,70
2018-07-01T09:35:32.877Z,70
2018-07-01T09:36:13.458Z,70
2018-07-01T09:36:53.812Z,70
2018-07-01T09:37:34.180Z,70
2018-07-01T09:38:14.604Z,65
2018-07-01T09:38:55.120Z,65
2018-07-01T09:39:35.556Z,65
2018-07-01T09:40:16.595Z,65
2018-07-01T09:40:56.504Z,65
2018-07-01T09:41:37.015Z,65
2018-07-01T09:42:17.402Z,65
2018-07-01T09:42:57.769Z,65
2018-07-01T09:43:38.290Z,65
2018-07-01T09:44:18.676Z,60
2018-07-01T09:44:59.184Z,70
2018-07-01T09:45:39.590Z,70
2018-07-01T09:46:20.170Z,70
2018-07-01T09:47:00.714Z,70
2018-07-01T09:47:41.288Z,70
2018-07-01T09:48:21.708Z,70
2018-07-01T09:49:02.109Z,70
2018-07-01T09:49:42.509Z,60
2018-07-01T09:50:23.037Z,60
2018-07-01T09:51:03.542Z,65
2018-07-01T09:51:43.951Z,60
2018-07-01T09:52:24.852Z,60
2018-07-01T09:53:04.758Z,70
2018-07-01T09:53:45.237Z,70
2018-07-01T09:54:25.612Z,70
2018-07-01T09:55:06.188Z,70
2018-07-01T09:55:46.615Z,70
2018-07-01T09:56:27.153Z,70
2018-07-01T09:57:07.744Z,70
2018-07-01T09:57:48.020Z,70
2018-07-01T09:58:28.512Z,65
2018-07-01T09:59:09.172Z,60
2018-07-01T09:59:49.396Z,60
2018-07-01T10:00:29.843Z,60
2018-07-01T10:01:10.277Z,60
2018-07-01T10:01:50.780Z,60
2018-07-01T10:02:31.157Z,60
2018-07-01T10:03:11.648Z,60
2018-07-01T10:03:52.253Z,60
2018-07-01T10:43:10.996Z,65
2018-07-01T10:45:45.461Z,55
2018-07-01T10:46:25.943Z,55
2018-07-01T10:47:06.288Z,55
2018-07-01T10:47:46.775Z,55
2018-07-01T10:48:27.326Z,60
2018-07-01T10:49:07.714Z,55
2018-07-01T10:49:48.187Z,55
2018-07-01T10:50:28.896Z,55
2018-07-01T10:51:09.275Z,55
2018-07-01T10:51:49.924Z,55
2018-07-01T10:52:30.248Z,55
2018-07-01T10:53:10.762Z,55
2018-07-01T10:53:51.213Z,55
2018-07-01T10:54:31.741Z,55
2018-07-01T10:55:12.084Z,55
2018-07-01T10:55:52.640Z,55
2018-07-01T10:56:32.972Z,55
2018-07-01T10:57:13.370Z,55
2018-07-01T10:57:53.767Z,55
2018-07-01T10:58:34.172Z,55
2018-07-01T10:59:14.671Z,55
2018-07-01T10:59:55.013Z,55
2018-07-01T11:00:35.422Z,55
2018-07-01T11:01:15.863Z,55
2018-07-01T11:01:56.270Z,55
2018-07-01T11:02:36.693Z,55
2018-07-01T11:03:17.291Z,55
2018-07-01T11:03:57.785Z,55
2018-07-01T11:04:38.215Z,55
2018-07-01T11:05:18.812Z,55
2018-07-01T11:07:37.604Z,65
2018-07-01T11:08:18.065Z,65
2018-07-01T11:08:58.612Z,60
2018-07-01T11:09:39.126Z,60
2018-07-01T11:10:19.610Z,60
2018-07-01T11:11:00.325Z,60
2018-07-01T11:11:40.523Z,60
2018-07-01T11:12:21.031Z,60
2018-07-01T11:13:01.729Z,60
2018-07-01T11:13:41.955Z,60
2018-07-01T11:14:22.396Z,60
2018-07-01T11:15:03.042Z,60
2018-07-01T11:15:43.362Z,60
2018-07-01T11:16:23.835Z,60
2018-07-01T11:17:04.221Z,60
2018-07-01T11:19:25.286Z,60
2018-07-01T11:21:59.422Z,60
2018-07-01T11:22:40.689Z,60
2018-07-01T11:23:21.548Z,60
2018-07-01T11:24:01.862Z,60
2018-07-01T11:24:42.276Z,60
2018-07-01T11:25:22.774Z,55
2018-07-01T11:26:03.342Z,55
2018-07-01T11:26:43.771Z,55
2018-07-01T11:27:24.282Z,55
2018-07-01T11:28:04.580Z,55
2018-07-01T11:28:44.938Z,55
2018-07-01T11:29:25.344Z,55
2018-07-01T11:30:05.849Z,55
2018-07-01T11:30:46.527Z,55
2018-07-01T11:31:27.194Z,55
2018-07-01T11:32:07.363Z,55
2018-07-01T11:32:47.943Z,55
2018-07-01T11:33:28.410Z,55
2018-07-01T11:34:08.624Z,55
2018-07-01T11:34:49.070Z,55
2018-07-01T11:35:29.577Z,55
2018-07-01T11:36:10.069Z,55
2018-07-01T11:36:50.567Z,55
2018-07-01T11:37:30.958Z,55
2018-07-01T11:38:11.364Z,55
2018-07-01T11:38:51.720Z,55
2018-07-01T11:41:26.048Z,55
2018-07-01T11:42:06.556Z,55
2018-07-01T11:42:46.873Z,55
2018-07-01T11:43:27.296Z,60
2018-07-01T11:44:07.744Z,60
2018-07-01T11:44:48.346Z,60
2018-07-01T11:45:28.702Z,60
2018-07-01T11:48:46.982Z,60
2018-07-01T11:49:27.326Z,60
2018-07-01T11:50:07.733Z,60
2018-07-01T11:50:48.257Z,55
2018-07-01T11:51:28.601Z,55
2018-07-01T11:52:09.298Z,55